1 oktober 2022

Tijd Code Weer Temp. Zicht Plafond Wind METAR/SPECI
01:37
L
2 °C ½ mi - 210° 210° 4 kt METAR CYEG 010737Z 21004KT 150V240 1/2SM R02/P6000FT/N R30/3000VP6000FT/U FG SKC 02/02 A3023 RMK FG6 SLP255
01:21
L
5 °C ¾ mi - 180° 180° 5 kt METAR CYEG 010721Z 18005KT 3/4SM R02/P6000FT/N R30/3000VP6000FT/N BR SKC 05/05 A3023 RMK FG6 SLP254
01:00
L
4 °C ½ mi - 180° 180° 4 kt METAR CYEG 010700Z 18004KT 1/2SM R02/P6000FT/N R30/3500VP6000FT/D FG SKC 04/04 A3023 RMK FG6 SLP255
00:58
L
4 °C ½ mi - 180° 180° 4 kt METAR CYEG 010658Z 18004KT 1/2SM R02/P6000FT/N R30/3500VP6000FT/D FG SKC 04/04 A3023 RMK FG6 SLP255
00:56
I
5 °C 2 mi - 190° 190° 3 kt METAR CYEG 010656Z 19003KT 2SM R30/3000VP6000FT/N BR SKC 05/05 A3023 RMK SLP256
00:00
V
5 °C 20 mi - 190° 190° 3 kt METAR CYEG 010600Z 19003KT 20SM SKC 05/05 A3023 RMK SLP254

30 september 2022

Tijd Code Weer Temp. Zicht Plafond Wind METAR/SPECI
23:00
V
7 °C 20 mi - 140° 140° 4 kt METAR CYEG 010500Z 14004KT 110V180 20SM SKC 07/06 A3022 RMK SLP252
22:00
V
10 °C 20 mi - 080° 080° 4 kt METAR CYEG 010400Z 08004KT 20SM SKC 10/08 A3023 RMK SLP255
21:00
V
11 °C 20 mi - 060° 060° 4 kt METAR CYEG 010300Z 06004KT 20SM SCT250 11/09 A3022 RMK CI3 SLP251
20:00
V
12 °C 20 mi - 040° 040° 5 kt METAR CYEG 010200Z 04005KT 20SM FEW110 SCT250 12/09 A3021 RMK AC1CI4 AC TR SLP249
19:00
V
15 °C 20 mi - 030° 030° 6 kt METAR CYEG 010100Z 03006KT 20SM FEW110 SCT250 15/10 A3020 RMK AC1CI4 AC TR SLP241 DENSITY ALT 2600FT
18:00
V
18 °C 20 mi - 030° 030° 5 kt METAR CYEG 010000Z 03005KT 20SM FEW110 SCT250 18/10 A3018 RMK AC1CI4 AC TR SLP233 DENSITY ALT 3000FT
17:00
V
19 °C 20 mi - 060° 060° 7 kt METAR CYEG 302300Z 06007KT 20SM FEW035 FEW110 FEW250 19/10 A3019 RMK CU1AC1CI1 CU TR AC TR SLP234 DENSITY ALT 3100FT
16:00
V
19 °C 20 mi - 050° 050° 10 kt METAR CYEG 302200Z 05010KT 20SM FEW035 FEW110 FEW250 19/10 A3019 RMK CU1AC1CC1 AC TR CC TR SLP234 DENSITY ALT 3200FT
15:00
V
18 °C 20 mi - 030° 030° 6 kt METAR CYEG 302100Z 03006KT 360V120 20SM FEW032 FEW110 FEW250 18/10 A3019 RMK CU1AC1CI1 AC TR CI TR SLP235 DENSITY ALT 3000FT
14:00
V
17 °C 20 mi - 350° 350° 7 kt METAR CYEG 302000Z CCA 35007KT 320V060 20SM FEW025 FEW110 17/11 A3019 RMK CU1AC1 SLP233 DENSITY ALT 2900FT
13:00
V
16 °C 20 mi 11.000 ft 360° 360° 5 kt METAR CYEG 301900Z 36005KT 20SM FEW020 FEW100 BKN110 BKN250 16/11 A3020 RMK CF1AC2AC5CI1 CF TR CI TR SLP236 DENSITY ALT 2800FT
12:00
V
16 °C 20 mi 11.000 ft 340° 340° 4 kt METAR CYEG 301800Z CCA 34004KT 300V030 20SM FEW020 SCT095 BKN110 16/11 A3020 RMK CF1AC3AC4 CF TR SLP237 DENSITY ALT 2700FT
11:00
V
14 °C 15 mi 11.000 ft 350° 350° 3 kt METAR CYEG 301700Z 35003KT 270V070 15SM FEW010 SCT089 BKN110 BKN180 14/11 A3018 RMK SF1AC3AC3AC1 SF TR AC TR SLP234 DENSITY ALT 2600FT
10:00
V
11 °C 15 mi 12.000 ft 270° 270° 3 kt METAR CYEG 301600Z 27003KT 220V280 15SM FEW010 SCT100 BKN120 BKN240 11/11 A3017 RMK SF1AC4AC3CI1 SF TR CI TR VIRGA PTCHS SLP232
09:00
V
10 °C 15 mi 11.000 ft 350° 350° 2 kt METAR CYEG 301500Z 35002KT 15SM FEW010 BKN110 BKN240 10/10 A3017 RMK SF1AC7CI1 SF TR CI TR VIRGA PTCHS SLP232
08:00
V
10 °C 12 mi 12.000 ft 300° 300° 3 kt METAR CYEG 301400Z 30003KT 12SM FEW010 BKN120 BKN240 10/10 A3017 RMK SF1AC7CI1 SF TR CI TR BR SLP231
07:00
V
9 °C 20 mi 12.000 ft 310° 310° 4 kt METAR CYEG 301300Z 31004KT 20SM BKN120 BKN160 BKN240 09/09 A3015 RMK AC5AS2CI1 CI TR SLP226
06:00
V
9 °C 20 mi 16.000 ft 300° 300° 3 kt METAR CYEG 301200Z 30003KT 20SM SCT130 BKN160 BKN240 09/09 A3014 RMK AC3AS3CI1 SLP219
05:00
V
10 °C 20 mi 16.000 ft 320° 320° 5 kt METAR CYEG 301100Z 32005KT 20SM SCT140 BKN160 10/10 A3014 RMK AC3AS3 SLP217
04:00
V
10 °C 20 mi 16.000 ft 310° 310° 5 kt METAR CYEG 301000Z 31005KT 20SM FEW120 BKN160 10/10 A3014 RMK AC1AS5 SLP216
03:00
V
10 °C 20 mi 16.000 ft 280° 280° 3 kt METAR CYEG 300900Z 28003KT 20SM FEW120 BKN160 BKN210 10/09 A3013 RMK AC2AS3CI1 SLP213
02:00
V
12 °C 15 mi 12.000 ft 330° 330° 5 kt METAR CYEG 300800Z 33005KT 15SM BKN120 BKN210 12/10 A3011 RMK AC6CI1 SLP207 DENSITY ALT 2400FT
01:00
V
14 °C 15 mi 12.000 ft 010° 010° 8 kt METAR CYEG 300700Z 01008KT 15SM BKN120 14/11 A3011 RMK AC7 VIRGA OHD SLP205 DENSITY ALT 2600FT
00:00
V
12 °C 15 mi 12.000 ft 350° 350° 8 kt METAR CYEG 300600Z 35008KT 15SM BKN120 BKN240 12/10 A3011 RMK AC7CI1 CI TR VIRGA OHD SLP209 DENSITY ALT 2400FT

29 september 2022

Tijd Code Weer Temp. Zicht Plafond Wind METAR/SPECI
23:00
V
12 °C 15 mi 12.000 ft 320° 320° 5 kt METAR CYEG 300500Z 32005KT 15SM BKN120 BKN240 12/10 A3011 RMK AC7CI1 CI TR VIRGA PTCHS SLP210 DENSITY ALT 2400FT
22:00
V
13 °C 15 mi 13.000 ft 340° 340° 6 kt METAR CYEG 300400Z 34006KT 15SM BKN130 BKN240 13/10 A3010 RMK AC6CI1 VIRGA PTCHS SLP207 DENSITY ALT 2500FT
21:00
V
14 °C 15 mi 13.000 ft 350° 350° 6 kt METAR CYEG 300300Z 35006KT 15SM BKN130 BKN240 14/10 A3008 RMK AC7CI1 CI TR SLP202 DENSITY ALT 2600FT
20:00
V
15 °C 12 mi 13.000 ft 350° 350° 9 kt METAR CYEG 300200Z 35009KT 12SM BKN130 BKN180 BKN240 15/10 A3007 RMK AC6AC1CI1 CI TR ACC ASOCTD SH DIST S SLP197 DENSITY ALT 2800FT
19:00
V
15 °C 12 mi 14.000 ft 330° 330° 10 kt METAR CYEG 300100Z 33010KT 12SM BKN140 BKN180 BKN240 15/10 A3005 RMK AC5AC2CI1 CI TR ACC ASOCTD SH DIST SW SLP189 DENSITY ALT 2900FT
18:00
V
17 °C 12 mi 14.000 ft 340° 340° 10 kt METAR CYEG 300000Z 34010KT 12SM BKN140 BKN180 BKN240 17/10 A3003 RMK AC5AS2CI1 CI TR ACC ASOCTD SLP185 DENSITY ALT 3000FT
17:00
V
17 °C 12 mi 14.000 ft 340° 340° 10 kt METAR CYEG 292300Z 34010KT 12SM BKN140 BKN180 BKN240 17/10 A3002 RMK AC5AS2CI1 CI TR ACC ASOCTD SH DIST NW-NE SLP184 DENSITY ALT 3000FT
16:00
V
17 °C 12 mi 14.000 ft 320° 320° 12 kt METAR CYEG 292200Z 32012KT 12SM VCSH BKN140 BKN180 BKN220 17/09 A3001 RMK AC5AS2CI1 CI TR ACC ASOCTD SH W-N-E SLP177 DENSITY ALT 3100FT
15:54
V
17 °C 12 mi 14.000 ft 320° 320° 12 kt METAR CYEG 292154Z 32012KT 12SM VCSH BKN140 BKN180 BKN220 17/09 A3001 RMK AC5AS2CI1 CI TR ACC ASOCTD SH W-N-E SLP177 DENSITY ALT 3100FT
15:37
V
17 °C 12 mi 9.200 ft 300° 300° 12 kt METAR CYEG 292137Z 30012KT 12SM -SHRA BKN092 OVC180 17/09 A3001 RMK AC6AS2 ACC ASOCTD SLP177 DENSITY ALT 3100FT
15:00
V
17 °C 12 mi 10.000 ft 330° 330° 8 kt METAR CYEG 292100Z 33008KT 12SM BKN100 OVC220 17/09 A3001 RMK AC7CI1 ACC ASOCTD VIRGA OHD SLP176 DENSITY ALT 3200FT
14:00
V
17 °C 12 mi 12.000 ft 340° 340° 5 kt METAR CYEG 292000Z 34005KT 12SM BKN120 BKN180 OVC240 17/09 A3001 RMK AC5AS2CI1 ACC ASOCTD PCPN/VIRGA DIST S-W SLP176 DENSITY ALT 3200FT
13:00
V
16 °C 12 mi 12.000 ft 340° 340° 3 kt METAR CYEG 291900Z 34003KT 270V350 12SM BKN120 BKN180 OVC250 16/09 A3001 RMK AC6AC1CI1 ACC ASOCTD VIRGA OHD SLP175 DENSITY ALT 3000FT
12:00
V
15 °C 12 mi 12.000 ft 300° 300° 3 kt METAR CYEG 291800Z 30003KT 12SM BKN120 BKN180 BKN250 15/09 A3001 RMK AC5AC1CI1 ACC ASOCTD SH DIST SW VIRGA S + NW SLP174 DENSITY ALT 2800FT
11:00
V
14 °C 12 mi 10.000 ft Var 000° 0 kt METAR CYEG 291700Z 00000KT 12SM BKN100 BKN180 OVC250 14/09 A2999 RMK AC6AC1CI2 AC TR ACC ASOCTD VIRGA E-S-W SLP170 DENSITY ALT 2800FT
10:00
V
12 °C 12 mi 13.000 ft 010° 010° 2 kt METAR CYEG 291600Z 01002KT 12SM BKN130 BKN180 OVC250 12/09 A2997 RMK AC5AC1CI3 AC TR ACC ASOCTD PRESRR SLP160 DENSITY ALT 2600FT
09:00
V
9 °C 15 mi 14.000 ft 360° 360° 2 kt METAR CYEG 291500Z 36002KT 15SM BKN140 BKN180 BKN250 09/08 A2995 RMK AC5AC1CI2 AC TR ACC ASOCTD SLP151
08:00
V
8 °C 15 mi 13.000 ft Var Var 2 kt METAR CYEG 291400Z VRB02KT 15SM BKN130 BKN180 BKN250 08/06 A2994 RMK AC5AC1CI2 AC TR VIRGA DIST E SLP150
07:00
V
8 °C 20 mi 14.000 ft Var Var 3 kt METAR CYEG 291300Z VRB03KT 20SM BKN140 BKN160 BKN240 08/06 A2992 RMK AC5AC2CI1 CI TR SLP140
06:00
V
7 °C 20 mi 16.000 ft 040° 040° 6 kt METAR CYEG 291200Z 04006KT 030V100 20SM BKN160 BKN240 07/05 A2992 RMK AC5CI2 SLP138
05:00
V
4 °C 20 mi 25.000 ft 180° 180° 4 kt METAR CYEG 291100Z 18004KT 20SM SCT180 BKN250 04/03 A2993 RMK AC4CI2 SLP141
04:00
V
5 °C 20 mi - 200° 200° 2 kt METAR CYEG 291000Z 20002KT 20SM SCT240 05/03 A2993 RMK CI4 SLP141
03:00
V
4 °C 20 mi 24.000 ft 210° 210° 2 kt METAR CYEG 290900Z 21002KT 20SM BKN240 04/03 A2992 RMK CI5 SLP140
Oudere gegevens

Met cookies volgen wij en derde partijen jouw internetgedrag binnen onze site. Als je verdergaat gaan we ervan uit dat je dit goedvindt. Meer info